This is the latest recevied weather packets stored in our database for station/object OE3TEC-15. If no packets are shown the sender has not sent any weather packets the latest 1 day(s).
| Time | Temp. | Humidity | Pressure | Rain* | Wind** | Luminosity | Snow |
|---|---|---|---|---|---|---|---|
| 1777982530 | 26.11° C | 36% | 1007.7 hPa | 0 mm | 1.34 m/s, 126° | 627 W/m² | - |
| 1777981922 | 25.56° C | 37% | 1008 hPa | 0 mm | 1.79 m/s, 129° | 639 W/m² | - |
| 1777981315 | 25.56° C | 36% | 1008 hPa | 0 mm | 1.79 m/s, 118° | 650 W/m² | - |
| 1777980708 | 25° C | 38% | 1008.2 hPa | 0 mm | 2.24 m/s, 104° | 599 W/m² | - |
| 1777980100 | 25° C | 37% | 1008.3 hPa | 0 mm | 1.79 m/s, 100° | 670 W/m² | - |
| 1777979493 | 23.89° C | 38% | 1008.4 hPa | 0 mm | 2.24 m/s, 90° | 672 W/m² | - |
| 1777978886 | 23.33° C | 36% | 1008.7 hPa | 0 mm | 1.79 m/s, 98° | 678 W/m² | - |
| 1777978278 | 23.33° C | 39% | 1008.8 hPa | 0 mm | 2.24 m/s, 94° | 679 W/m² | - |
| 1777977671 | 23.33° C | 40% | 1008.7 hPa | 0 mm | 1.79 m/s, 89° | 681 W/m² | - |
| 1777977065 | 23.33° C | 40% | 1009 hPa | 0 mm | 1.79 m/s, 115° | 681 W/m² | - |
| 1777976456 | 22.78° C | 41% | 1009.1 hPa | 0 mm | 2.24 m/s, 99° | 679 W/m² | - |
| 1777975850 | 23.89° C | 40% | 1009.3 hPa | 0 mm | 1.34 m/s, 106° | 676 W/m² | - |
| 1777975243 | 22.78° C | 43% | 1009.4 hPa | 0 mm | 1.79 m/s, 98° | 672 W/m² | - |
| 1777974636 | 23.33° C | 42% | 1009.6 hPa | 0 mm | 1.34 m/s, 112° | 669 W/m² | - |
| 1777974028 | 22.78° C | 44% | 1009.6 hPa | 0 mm | 1.34 m/s, 101° | 649 W/m² | - |
| 1777973422 | 21.67° C | 46% | 1009.8 hPa | 0 mm | 1.79 m/s, 99° | 618 W/m² | - |
| 1777972814 | 22.22° C | 44% | 1009.8 hPa | 0 mm | 1.34 m/s, 101° | 656 W/m² | - |
| 1777972206 | 21.67° C | 45% | 1009.8 hPa | 0 mm | 1.34 m/s, 97° | 640 W/m² | - |
| 1777971598 | 20.56° C | 47% | 1010.1 hPa | 0 mm | 1.34 m/s, 111° | 634 W/m² | - |
| 1777970991 | 19.44° C | 51% | 1010.1 hPa | 0 mm | 1.34 m/s, 106° | 274 W/m² | - |
| 1777970385 | 20.56° C | 48% | 1010 hPa | 0 mm | 1.34 m/s, 117° | 161 W/m² | - |
| 1777969779 | 21.11° C | 48% | 1010.1 hPa | 0 mm | 0.89 m/s, 121° | 599 W/m² | - |
| 1777969171 | 20.56° C | 51% | 1010.1 hPa | 0 mm | 0.89 m/s, 123° | 566 W/m² | - |
| 1777968563 | 19.44° C | 51% | 1010.2 hPa | 0 mm | 1.34 m/s, 101° | 532 W/m² | - |
| 1777967956 | 19.44° C | 52% | 1010.4 hPa | 0 mm | 0.89 m/s, 116° | 508 W/m² | - |
* Rain latest hour (hover to see other rain measurements)
** Current wind speed in m/s (hover to see current wind gust speed)